createdAt,value
2022-10-02T00:00:01.617Z,11.10
2022-10-02T00:02:35.598Z,11.10
2022-10-02T00:05:08.549Z,11.10
2022-10-02T00:07:42.942Z,11.10
2022-10-02T00:10:17.583Z,11.00
2022-10-02T00:12:49.429Z,11.10
2022-10-02T00:15:25.708Z,11.10
2022-10-02T00:17:58.065Z,11.10
2022-10-02T00:20:35.474Z,11.00
2022-10-02T00:23:09.494Z,11.10
2022-10-02T00:25:47.143Z,11.10
2022-10-02T00:28:24.115Z,11.10
2022-10-02T00:31:20.410Z,11.10
2022-10-02T00:33:59.129Z,11.10
2022-10-02T00:36:38.202Z,11.10
2022-10-02T00:39:18.962Z,11.10
2022-10-02T00:42:19.156Z,11.10
2022-10-02T00:45:17.801Z,11.10
2022-10-02T00:47:54.602Z,11.10
2022-10-02T00:50:35.160Z,11.10
2022-10-02T00:53:28.782Z,11.10
2022-10-02T00:56:14.488Z,11.10
2022-10-02T00:59:02.622Z,11.10
2022-10-02T01:01:41.781Z,11.10
2022-10-02T01:04:14.846Z,11.10
2022-10-02T01:06:43.709Z,11.10
2022-10-02T01:09:13.569Z,11.10
2022-10-02T01:11:42.354Z,11.10
2022-10-02T01:14:11.026Z,11.10
2022-10-02T01:16:42.217Z,11.10
2022-10-02T01:19:26.623Z,11.10
2022-10-02T01:22:00.516Z,11.10
2022-10-02T01:24:35.779Z,11.10
2022-10-02T01:27:05.979Z,11.10
2022-10-02T01:29:34.794Z,11.10
2022-10-02T01:32:03.596Z,11.10
2022-10-02T01:34:34.143Z,11.10
2022-10-02T01:37:03.173Z,11.10
2022-10-02T01:39:33.144Z,11.10
2022-10-02T01:42:02.198Z,11.10
2022-10-02T01:44:33.406Z,11.10
2022-10-02T01:47:06.852Z,11.10
2022-10-02T01:49:48.870Z,11.10
2022-10-02T01:52:36.054Z,11.20
2022-10-02T01:55:23.119Z,11.20
2022-10-02T01:58:01.254Z,11.20
2022-10-02T02:00:43.404Z,11.20
2022-10-02T02:03:18.987Z,11.20
2022-10-02T02:05:52.304Z,11.20
2022-10-02T02:08:30.315Z,11.10
2022-10-02T02:11:09.920Z,11.10
2022-10-02T02:13:46.825Z,11.10
2022-10-02T02:16:24.962Z,11.20
2022-10-02T02:19:01.042Z,11.10
2022-10-02T02:21:33.219Z,11.10
2022-10-02T02:24:05.791Z,11.20
2022-10-02T02:26:35.755Z,11.10
2022-10-02T02:29:14.191Z,11.10
2022-10-02T02:31:50.614Z,11.10
2022-10-02T02:34:23.090Z,11.10
2022-10-02T02:36:57.594Z,11.10
2022-10-02T02:39:34.180Z,11.10
2022-10-02T02:42:06.428Z,11.10
2022-10-02T02:44:39.798Z,11.10
2022-10-02T02:47:14.028Z,11.00
2022-10-02T02:49:51.148Z,11.00
2022-10-02T02:52:26.200Z,11.00
2022-10-02T02:55:01.456Z,11.00
2022-10-02T02:57:35.444Z,11.00
2022-10-02T03:00:07.030Z,11.10
2022-10-02T03:02:37.167Z,10.90
2022-10-02T03:05:16.587Z,10.80
2022-10-02T03:07:50.652Z,10.70
2022-10-02T03:10:26.130Z,10.70
2022-10-02T03:13:09.039Z,10.60
2022-10-02T03:15:47.804Z,10.70
2022-10-02T03:18:41.066Z,10.60
2022-10-02T03:21:15.404Z,10.50
2022-10-02T03:23:57.764Z,10.40
2022-10-02T03:26:32.314Z,10.20
2022-10-02T03:29:04.905Z,10.20
2022-10-02T03:31:35.513Z,10.20
2022-10-02T03:34:06.993Z,10.20
2022-10-02T03:36:35.917Z,10.30
2022-10-02T03:39:24.105Z,10.40
2022-10-02T03:41:54.388Z,10.50
2022-10-02T03:44:23.036Z,10.60
2022-10-02T03:46:51.763Z,10.60
2022-10-02T03:49:21.926Z,10.60
2022-10-02T03:51:50.762Z,10.60
2022-10-02T03:54:21.681Z,10.70
2022-10-02T03:56:57.609Z,10.80
2022-10-02T03:59:36.976Z,10.80
2022-10-02T04:02:13.926Z,10.90
2022-10-02T04:04:47.884Z,10.90
2022-10-02T04:07:23.104Z,10.90
2022-10-02T04:09:58.596Z,11.00
2022-10-02T04:12:32.531Z,11.00
2022-10-02T04:15:06.730Z,11.00
2022-10-02T04:17:44.972Z,11.10
2022-10-02T04:20:22.612Z,11.10
2022-10-02T04:22:54.395Z,11.10
2022-10-02T04:25:25.409Z,11.20
2022-10-02T04:27:58.280Z,11.20
2022-10-02T04:30:27.613Z,11.20
2022-10-02T04:32:59.775Z,11.20
2022-10-02T04:35:38.740Z,11.20
2022-10-02T04:38:29.783Z,11.30
2022-10-02T04:41:14.585Z,11.20
2022-10-02T04:43:58.341Z,11.20
2022-10-02T04:46:48.082Z,11.20
2022-10-02T04:49:28.113Z,11.30
2022-10-02T04:52:10.187Z,11.30
2022-10-02T04:55:03.969Z,11.30
2022-10-02T04:57:56.378Z,11.30
2022-10-02T05:00:27.074Z,11.30
2022-10-02T05:03:25.023Z,11.30
2022-10-02T05:06:16.643Z,11.40
2022-10-02T05:09:08.880Z,11.40
2022-10-02T05:11:54.848Z,11.40
2022-10-02T05:14:53.306Z,11.40
2022-10-02T05:17:41.487Z,11.40
2022-10-02T05:20:43.981Z,11.50
2022-10-02T05:23:25.685Z,11.50
2022-10-02T05:26:21.504Z,11.40
2022-10-02T05:29:11.082Z,11.50
2022-10-02T05:31:50.757Z,11.50
2022-10-02T05:34:40.592Z,11.60
2022-10-02T05:37:35.138Z,11.60
2022-10-02T05:40:11.421Z,11.60
2022-10-02T05:42:48.805Z,11.70
2022-10-02T05:45:25.568Z,11.70
2022-10-02T05:48:02.374Z,11.70
2022-10-02T05:50:35.843Z,11.80
2022-10-02T05:53:09.351Z,11.80
2022-10-02T05:55:42.442Z,11.90
2022-10-02T05:58:19.367Z,11.90
2022-10-02T06:00:52.965Z,12.00
2022-10-02T06:03:27.401Z,12.00
2022-10-02T06:06:07.063Z,12.00
2022-10-02T06:08:41.437Z,12.10
2022-10-02T06:11:15.440Z,12.10
2022-10-02T06:13:51.334Z,12.10
2022-10-02T06:16:24.279Z,12.10
2022-10-02T06:18:57.837Z,12.10
2022-10-02T06:21:34.532Z,12.10
2022-10-02T06:24:07.388Z,12.10
2022-10-02T06:26:43.724Z,12.10
2022-10-02T06:29:23.663Z,12.20
2022-10-02T06:32:05.104Z,12.30
2022-10-02T06:34:33.742Z,12.40
2022-10-02T06:37:21.089Z,12.50
2022-10-02T06:40:12.863Z,12.50
2022-10-02T06:42:51.122Z,12.50
2022-10-02T06:45:32.927Z,12.50
2022-10-02T06:48:07.299Z,12.50
2022-10-02T06:50:52.679Z,12.50
2022-10-02T06:53:38.644Z,12.50
2022-10-02T06:56:24.258Z,12.40
2022-10-02T06:59:04.800Z,12.40
2022-10-02T07:01:50.238Z,12.40
2022-10-02T07:04:47.178Z,12.40
2022-10-02T07:07:31.281Z,12.40
2022-10-02T07:10:26.488Z,12.40
2022-10-02T07:13:17.606Z,12.40
2022-10-02T07:16:12.597Z,12.50
2022-10-02T07:18:58.172Z,12.70
2022-10-02T07:21:35.285Z,12.70
2022-10-02T07:24:32.609Z,12.80
2022-10-02T07:27:09.120Z,12.80
2022-10-02T07:29:50.796Z,12.70
2022-10-02T07:32:42.036Z,12.70
2022-10-02T07:35:38.975Z,12.80
2022-10-02T07:38:43.377Z,12.80
2022-10-02T07:41:45.819Z,12.90
2022-10-02T07:44:31.780Z,13.00
2022-10-02T07:47:09.449Z,13.10
2022-10-02T07:49:52.255Z,13.30
2022-10-02T07:52:32.111Z,13.40
2022-10-02T07:55:09.631Z,13.60
2022-10-02T07:57:49.147Z,13.70
2022-10-02T08:00:19.932Z,13.80
2022-10-02T08:02:53.577Z,13.80
2022-10-02T08:05:26.014Z,13.80
2022-10-02T08:08:01.568Z,13.80
2022-10-02T08:10:35.272Z,13.90
2022-10-02T08:13:12.838Z,13.90
2022-10-02T08:15:45.754Z,13.90
2022-10-02T08:18:34.252Z,13.80
2022-10-02T08:21:05.682Z,13.80
2022-10-02T08:23:40.746Z,13.70
2022-10-02T08:26:14.059Z,13.70
2022-10-02T08:28:50.749Z,13.60
2022-10-02T08:31:19.425Z,13.60
2022-10-02T08:33:48.407Z,13.60
2022-10-02T08:36:37.235Z,13.60
2022-10-02T08:39:22.238Z,13.60
2022-10-02T08:42:20.412Z,13.70
2022-10-02T08:45:24.409Z,13.60
2022-10-02T08:48:26.944Z,13.70
2022-10-02T08:51:44.444Z,13.80
2022-10-02T08:55:04.001Z,13.90
2022-10-02T08:58:13.147Z,13.90
2022-10-02T09:00:59.307Z,13.80
2022-10-02T09:04:00.620Z,13.80
2022-10-02T09:07:01.409Z,14.00
2022-10-02T09:10:08.668Z,14.20
2022-10-02T09:13:18.590Z,14.50
2022-10-02T09:15:54.561Z,14.80
2022-10-02T09:18:46.169Z,14.90
2022-10-02T09:21:20.323Z,15.00
2022-10-02T09:24:21.660Z,15.10
2022-10-02T09:27:27.291Z,15.20
2022-10-02T09:30:32.159Z,15.30
2022-10-02T09:33:55.631Z,15.50
2022-10-02T09:37:00.563Z,15.30
2022-10-02T09:40:12.744Z,15.20
2022-10-02T09:43:07.972Z,15.20
2022-10-02T09:46:11.587Z,15.10
2022-10-02T09:49:21.046Z,15.30
2022-10-02T09:52:18.942Z,15.40
2022-10-02T09:55:19.942Z,15.30
2022-10-02T09:58:27.779Z,15.20
2022-10-02T10:01:18.033Z,15.10
2022-10-02T10:04:33.826Z,15.00
2022-10-02T10:07:52.316Z,14.80
2022-10-02T10:10:53.677Z,14.90
2022-10-02T10:14:03.491Z,15.00
2022-10-02T10:17:09.341Z,15.30
2022-10-02T10:20:21.602Z,15.60
2022-10-02T10:23:06.690Z,15.90
2022-10-02T10:26:15.255Z,16.10
2022-10-02T10:29:40.293Z,16.20
2022-10-02T10:32:43.296Z,16.20
2022-10-02T10:35:29.392Z,15.50
2022-10-02T10:38:33.895Z,15.00
2022-10-02T10:41:33.837Z,14.30
2022-10-02T10:44:50.148Z,13.60
2022-10-02T10:47:45.313Z,13.20
2022-10-02T10:50:42.169Z,12.90
2022-10-02T10:53:40.650Z,12.80
2022-10-02T10:56:47.512Z,12.60
2022-10-02T10:59:47.147Z,12.60
2022-10-02T11:02:59.410Z,12.70
2022-10-02T11:06:07.662Z,12.80
2022-10-02T11:09:05.986Z,13.10
2022-10-02T11:11:46.668Z,13.40
2022-10-02T11:14:28.398Z,13.80
2022-10-02T11:17:41.666Z,14.20
2022-10-02T11:20:54.821Z,14.40
2022-10-02T11:23:39.958Z,14.50
2022-10-02T11:26:43.842Z,14.50
2022-10-02T11:29:54.354Z,14.70
2022-10-02T11:32:55.112Z,14.90
2022-10-02T11:35:30.769Z,14.90
2022-10-02T11:38:22.562Z,14.90
2022-10-02T11:41:20.932Z,14.80
2022-10-02T11:44:06.515Z,14.80
2022-10-02T11:47:08.215Z,14.90
2022-10-02T11:50:25.225Z,14.90
2022-10-02T11:53:35.336Z,15.10
2022-10-02T11:56:36.808Z,15.20
2022-10-02T11:59:23.200Z,15.40
2022-10-02T12:01:56.307Z,15.50
2022-10-02T12:04:43.881Z,15.60
2022-10-02T12:07:36.886Z,15.60
2022-10-02T12:10:20.815Z,15.50
2022-10-02T12:13:00.665Z,15.50
2022-10-02T12:15:41.172Z,15.50
2022-10-02T12:18:25.660Z,15.50
2022-10-02T12:21:22.437Z,15.50
2022-10-02T12:24:15.114Z,15.50
2022-10-02T12:27:04.981Z,15.70
2022-10-02T12:29:43.851Z,15.90
2022-10-02T12:32:24.727Z,16.00
2022-10-02T12:35:07.253Z,16.10
2022-10-02T12:37:44.092Z,16.10
2022-10-02T12:40:26.197Z,16.30
2022-10-02T12:43:13.164Z,16.50
2022-10-02T12:46:10.416Z,16.50
2022-10-02T12:49:04.406Z,16.20
2022-10-02T12:51:49.943Z,15.70
2022-10-02T12:54:45.919Z,15.40
2022-10-02T12:57:46.953Z,15.30
2022-10-02T13:00:18.688Z,15.30
2022-10-02T13:03:35.318Z,15.20
2022-10-02T13:06:46.886Z,15.00
2022-10-02T13:09:29.800Z,14.90
2022-10-02T13:12:15.509Z,14.80
2022-10-02T13:15:16.773Z,14.80
2022-10-02T13:17:53.515Z,14.90
2022-10-02T13:20:31.978Z,15.00
2022-10-02T13:23:09.347Z,15.00
2022-10-02T13:25:55.075Z,14.90
2022-10-02T13:28:42.560Z,14.90
2022-10-02T13:31:23.555Z,15.00
2022-10-02T13:34:08.146Z,15.00
2022-10-02T13:36:51.730Z,15.00
2022-10-02T13:39:38.443Z,15.00
2022-10-02T13:42:31.324Z,15.00
2022-10-02T13:45:10.892Z,14.90
2022-10-02T13:47:45.408Z,14.90
2022-10-02T13:50:24.817Z,14.90
2022-10-02T13:53:12.049Z,14.80
2022-10-02T13:55:46.714Z,14.80
2022-10-02T13:58:36.289Z,14.90
2022-10-02T14:01:15.256Z,15.30
2022-10-02T14:04:04.878Z,15.60
2022-10-02T14:06:40.139Z,15.60
2022-10-02T14:09:23.188Z,15.50
2022-10-02T14:12:09.126Z,15.40
2022-10-02T14:14:57.488Z,15.20
2022-10-02T14:17:37.667Z,15.10
2022-10-02T14:20:24.400Z,15.10
2022-10-02T14:23:08.855Z,15.20
2022-10-02T14:25:50.346Z,15.20
2022-10-02T14:28:36.329Z,15.20
2022-10-02T14:31:36.665Z,15.10
2022-10-02T14:34:27.523Z,15.00
2022-10-02T14:37:03.333Z,14.90
2022-10-02T14:39:38.942Z,14.80
2022-10-02T14:42:23.522Z,14.80
2022-10-02T14:45:18.403Z,14.80
2022-10-02T14:48:00.044Z,14.90
2022-10-02T14:50:50.172Z,14.80
2022-10-02T14:53:59.335Z,14.90
2022-10-02T14:57:16.263Z,14.90
2022-10-02T15:00:17.727Z,14.90
2022-10-02T15:03:11.248Z,14.80
2022-10-02T15:05:48.769Z,14.60
2022-10-02T15:08:23.557Z,14.60
2022-10-02T15:10:55.183Z,14.60
2022-10-02T15:13:36.129Z,14.50
2022-10-02T15:16:32.725Z,14.40
2022-10-02T15:19:17.169Z,14.20
2022-10-02T15:21:51.907Z,14.00
2022-10-02T15:24:31.829Z,13.80
2022-10-02T15:27:15.581Z,13.60
2022-10-02T15:30:00.140Z,13.40
2022-10-02T15:32:46.226Z,13.30
2022-10-02T15:35:29.597Z,13.20
2022-10-02T15:38:29.873Z,13.10
2022-10-02T15:41:19.559Z,13.10
2022-10-02T15:44:00.998Z,12.80
2022-10-02T15:46:38.907Z,12.70
2022-10-02T15:49:20.067Z,12.70
2022-10-02T15:52:03.049Z,12.60
2022-10-02T15:54:47.919Z,12.50
2022-10-02T15:57:49.252Z,12.30
2022-10-02T16:00:19.913Z,12.20
2022-10-02T16:03:13.895Z,12.00
2022-10-02T16:05:59.004Z,11.90
2022-10-02T16:09:02.702Z,11.70
2022-10-02T16:11:50.066Z,11.60
2022-10-02T16:14:32.913Z,11.50
2022-10-02T16:17:16.135Z,11.50
2022-10-02T16:20:26.940Z,11.50
2022-10-02T16:23:26.504Z,11.40
2022-10-02T16:26:16.891Z,11.30
2022-10-02T16:29:04.961Z,11.30
2022-10-02T16:31:46.724Z,11.20
2022-10-02T16:34:29.800Z,11.20
2022-10-02T16:37:04.495Z,11.10
2022-10-02T16:39:54.711Z,11.00
2022-10-02T16:42:35.410Z,10.90
2022-10-02T16:45:24.019Z,10.80
2022-10-02T16:47:57.277Z,10.70
2022-10-02T16:50:30.615Z,10.50
2022-10-02T16:53:05.298Z,10.50
2022-10-02T16:55:37.710Z,10.30
2022-10-02T16:58:24.535Z,10.30
2022-10-02T17:00:57.832Z,10.20
2022-10-02T17:03:33.846Z,10.20
2022-10-02T17:06:08.825Z,10.00
2022-10-02T17:08:44.784Z,9.90
2022-10-02T17:11:23.199Z,9.80
2022-10-02T17:14:06.549Z,9.80
2022-10-02T17:16:41.587Z,9.70
2022-10-02T17:19:29.823Z,9.60
2022-10-02T17:22:04.875Z,9.60
2022-10-02T17:24:40.363Z,9.50
2022-10-02T17:27:19.619Z,9.50
2022-10-02T17:29:56.119Z,9.50
2022-10-02T17:32:49.627Z,9.40
2022-10-02T17:35:28.097Z,9.40
2022-10-02T17:38:17.887Z,9.40
2022-10-02T17:40:55.970Z,9.40
2022-10-02T17:43:31.898Z,9.30
2022-10-02T17:46:35.820Z,9.40
2022-10-02T17:49:10.160Z,9.30
2022-10-02T17:51:53.474Z,9.40
2022-10-02T17:55:05.929Z,9.30
2022-10-02T17:57:53.802Z,9.30
2022-10-02T18:00:26.351Z,9.30
2022-10-02T18:03:12.297Z,9.20
2022-10-02T18:05:52.698Z,9.20
2022-10-02T18:08:38.976Z,9.20
2022-10-02T18:11:11.145Z,9.20
2022-10-02T18:13:58.675Z,9.20
2022-10-02T18:16:38.871Z,9.20
2022-10-02T18:19:27.911Z,9.10
2022-10-02T18:22:16.570Z,9.10
2022-10-02T18:25:14.562Z,9.00
2022-10-02T18:27:59.769Z,9.00
2022-10-02T18:30:40.327Z,9.00
2022-10-02T18:33:33.797Z,8.90
2022-10-02T18:36:35.050Z,9.00
2022-10-02T18:39:17.524Z,8.90
2022-10-02T18:41:57.329Z,8.90
2022-10-02T18:44:45.268Z,8.90
2022-10-02T18:47:31.414Z,8.90
2022-10-02T18:50:12.897Z,8.90
2022-10-02T18:53:08.787Z,9.00
2022-10-02T18:56:03.342Z,9.00
2022-10-02T18:58:50.622Z,9.00
2022-10-02T19:01:45.886Z,9.20
2022-10-02T19:04:40.525Z,9.40
2022-10-02T19:07:13.581Z,9.60
2022-10-02T19:09:42.811Z,9.70
2022-10-02T19:12:17.300Z,9.80
2022-10-02T19:14:47.158Z,9.90
2022-10-02T19:17:18.199Z,10.00
2022-10-02T19:19:48.175Z,10.10
2022-10-02T19:22:21.133Z,10.10
2022-10-02T19:24:53.367Z,10.20
2022-10-02T19:27:28.393Z,10.20
2022-10-02T19:29:59.821Z,10.20
2022-10-02T19:32:32.065Z,10.30
2022-10-02T19:35:07.716Z,10.30
2022-10-02T19:37:42.959Z,10.40
2022-10-02T19:40:19.369Z,10.50
2022-10-02T19:42:50.716Z,10.60
2022-10-02T19:45:26.999Z,10.70
2022-10-02T19:47:59.940Z,11.00
2022-10-02T19:50:40.153Z,11.20
2022-10-02T19:53:17.152Z,11.30
2022-10-02T19:55:47.418Z,11.30
2022-10-02T19:58:21.489Z,11.30
2022-10-02T20:00:52.064Z,11.30
2022-10-02T20:03:23.260Z,11.10
2022-10-02T20:06:02.357Z,11.10
2022-10-02T20:08:34.846Z,11.00
2022-10-02T20:11:09.381Z,10.90
2022-10-02T20:13:43.770Z,10.90
2022-10-02T20:16:37.135Z,10.80
2022-10-02T20:19:07.814Z,10.80
2022-10-02T20:21:42.080Z,10.70
2022-10-02T20:24:18.923Z,10.70
2022-10-02T20:26:50.357Z,10.60
2022-10-02T20:29:22.341Z,10.60
2022-10-02T20:31:54.496Z,10.50
2022-10-02T20:34:27.759Z,10.40
2022-10-02T20:37:04.862Z,10.30
2022-10-02T20:39:38.743Z,10.20
2022-10-02T20:42:14.914Z,10.10
2022-10-02T20:44:43.781Z,10.20
2022-10-02T20:47:42.213Z,10.20
2022-10-02T20:50:31.538Z,10.20
2022-10-02T20:53:44.636Z,10.20
2022-10-02T20:56:26.419Z,10.20
2022-10-02T20:59:17.342Z,10.20
2022-10-02T21:02:00.865Z,10.20
2022-10-02T21:05:00.090Z,10.20
2022-10-02T21:08:03.743Z,10.10
2022-10-02T21:11:13.515Z,10.20
2022-10-02T21:14:18.061Z,10.20
2022-10-02T21:17:16.798Z,10.20
2022-10-02T21:20:16.666Z,10.30
2022-10-02T21:23:29.371Z,10.30
2022-10-02T21:26:40.756Z,10.30
2022-10-02T21:29:30.933Z,10.20
2022-10-02T21:32:26.670Z,10.00
2022-10-02T21:35:07.887Z,10.20
2022-10-02T21:37:48.645Z,10.10
2022-10-02T21:40:48.614Z,10.10
2022-10-02T21:44:00.310Z,10.00
2022-10-02T21:47:10.537Z,10.00
2022-10-02T21:50:04.038Z,9.90
2022-10-02T21:53:04.410Z,9.90
2022-10-02T21:56:19.828Z,9.80
2022-10-02T21:59:23.628Z,9.70
2022-10-02T22:02:23.423Z,9.70
2022-10-02T22:05:14.570Z,9.60
2022-10-02T22:07:49.699Z,9.60
2022-10-02T22:10:26.880Z,9.50
2022-10-02T22:13:11.299Z,9.50
2022-10-02T22:15:45.937Z,9.50
2022-10-02T22:18:24.333Z,9.50
2022-10-02T22:21:04.600Z,9.50
2022-10-02T22:24:07.697Z,9.60
2022-10-02T22:26:58.247Z,9.60
2022-10-02T22:29:39.689Z,9.60
2022-10-02T22:32:49.207Z,9.60
2022-10-02T22:35:28.750Z,9.60
2022-10-02T22:38:10.053Z,9.60
2022-10-02T22:40:48.389Z,9.60
2022-10-02T22:43:30.496Z,9.60
2022-10-02T22:46:04.335Z,9.60
2022-10-02T22:48:41.117Z,9.60
2022-10-02T22:51:20.556Z,9.60
2022-10-02T22:53:54.131Z,9.60
2022-10-02T22:56:30.466Z,9.70
2022-10-02T22:59:08.108Z,9.80
2022-10-02T23:01:45.991Z,9.80
2022-10-02T23:04:23.389Z,9.90
2022-10-02T23:07:02.404Z,9.90
2022-10-02T23:09:41.000Z,9.90
2022-10-02T23:12:14.999Z,9.90
2022-10-02T23:15:00.401Z,9.90
2022-10-02T23:17:38.451Z,9.90
2022-10-02T23:20:14.700Z,9.90
2022-10-02T23:22:53.796Z,10.00
2022-10-02T23:25:32.191Z,10.00
2022-10-02T23:28:06.153Z,10.00
2022-10-02T23:30:40.192Z,10.10
2022-10-02T23:33:23.400Z,10.10
2022-10-02T23:35:57.832Z,10.10
2022-10-02T23:38:35.661Z,10.10
2022-10-02T23:41:26.632Z,10.20
2022-10-02T23:44:05.947Z,10.10
2022-10-02T23:46:54.202Z,10.20
2022-10-02T23:49:25.483Z,10.20
2022-10-02T23:52:00.058Z,10.30
2022-10-02T23:54:50.203Z,10.30
2022-10-02T23:57:45.272Z,10.30
